sensor_id;sensor_type;location;lat;lon;timestamp;temperature;humidity
11491;DHT22;5802;52.832;4.758;2023-06-22T00:00:48;25.50;53.20
11491;DHT22;5802;52.832;4.758;2023-06-22T00:03:15;25.50;53.20
11491;DHT22;5802;52.832;4.758;2023-06-22T00:05:41;25.50;53.20
11491;DHT22;5802;52.832;4.758;2023-06-22T00:08:08;25.40;53.00
11491;DHT22;5802;52.832;4.758;2023-06-22T00:10:35;25.40;53.10
11491;DHT22;5802;52.832;4.758;2023-06-22T00:13:03;25.40;53.00
11491;DHT22;5802;52.832;4.758;2023-06-22T00:15:30;25.40;53.10
11491;DHT22;5802;52.832;4.758;2023-06-22T00:17:57;25.40;53.10
11491;DHT22;5802;52.832;4.758;2023-06-22T00:20:24;25.40;53.10
11491;DHT22;5802;52.832;4.758;2023-06-22T00:22:53;25.40;53.10
11491;DHT22;5802;52.832;4.758;2023-06-22T00:25:20;25.40;53.10
11491;DHT22;5802;52.832;4.758;2023-06-22T00:27:47;25.30;53.10
11491;DHT22;5802;52.832;4.758;2023-06-22T00:30:15;25.30;53.10
11491;DHT22;5802;52.832;4.758;2023-06-22T00:32:43;25.30;53.10
11491;DHT22;5802;52.832;4.758;2023-06-22T00:35:10;25.30;53.00
11491;DHT22;5802;52.832;4.758;2023-06-22T00:37:37;25.30;53.10
11491;DHT22;5802;52.832;4.758;2023-06-22T00:40:07;25.30;53.00
11491;DHT22;5802;52.832;4.758;2023-06-22T00:42:34;25.30;53.10
11491;DHT22;5802;52.832;4.758;2023-06-22T00:45:01;25.30;53.10
11491;DHT22;5802;52.832;4.758;2023-06-22T00:47:29;25.30;53.10
11491;DHT22;5802;52.832;4.758;2023-06-22T00:49:56;25.30;53.10
11491;DHT22;5802;52.832;4.758;2023-06-22T00:52:23;25.30;53.10
11491;DHT22;5802;52.832;4.758;2023-06-22T00:54:54;25.30;53.10
11491;DHT22;5802;52.832;4.758;2023-06-22T00:57:23;25.30;53.10
11491;DHT22;5802;52.832;4.758;2023-06-22T00:59:51;25.20;53.00
11491;DHT22;5802;52.832;4.758;2023-06-22T01:02:18;25.20;53.00
11491;DHT22;5802;52.832;4.758;2023-06-22T01:04:46;25.20;53.00
11491;DHT22;5802;52.832;4.758;2023-06-22T01:07:20;25.20;53.00
11491;DHT22;5802;52.832;4.758;2023-06-22T01:09:51;25.20;53.10
11491;DHT22;5802;52.832;4.758;2023-06-22T01:12:21;25.20;53.00
11491;DHT22;5802;52.832;4.758;2023-06-22T01:14:53;25.20;53.00
11491;DHT22;5802;52.832;4.758;2023-06-22T01:17:23;25.20;53.00
11491;DHT22;5802;52.832;4.758;2023-06-22T01:19:54;25.20;53.00
11491;DHT22;5802;52.832;4.758;2023-06-22T01:22:24;25.20;53.00
11491;DHT22;5802;52.832;4.758;2023-06-22T01:24:57;25.10;53.00
11491;DHT22;5802;52.832;4.758;2023-06-22T01:27:32;25.10;53.00
11491;DHT22;5802;52.832;4.758;2023-06-22T01:30:05;25.10;53.00
11491;DHT22;5802;52.832;4.758;2023-06-22T01:32:34;25.10;53.00
11491;DHT22;5802;52.832;4.758;2023-06-22T01:35:04;25.10;53.00
11491;DHT22;5802;52.832;4.758;2023-06-22T01:37:33;25.10;53.00
11491;DHT22;5802;52.832;4.758;2023-06-22T01:40:01;25.10;53.10
11491;DHT22;5802;52.832;4.758;2023-06-22T01:42:30;25.10;53.00
11491;DHT22;5802;52.832;4.758;2023-06-22T01:44:58;25.10;53.00
11491;DHT22;5802;52.832;4.758;2023-06-22T01:47:27;25.10;53.00
11491;DHT22;5802;52.832;4.758;2023-06-22T01:49:55;25.10;53.00
11491;DHT22;5802;52.832;4.758;2023-06-22T01:52:22;25.10;53.00
11491;DHT22;5802;52.832;4.758;2023-06-22T01:54:49;25.00;52.90
11491;DHT22;5802;52.832;4.758;2023-06-22T01:57:16;25.00;53.00
11491;DHT22;5802;52.832;4.758;2023-06-22T01:59:49;25.00;52.90
11491;DHT22;5802;52.832;4.758;2023-06-22T02:02:19;25.00;52.80
11491;DHT22;5802;52.832;4.758;2023-06-22T02:04:57;25.00;52.90
11491;DHT22;5802;52.832;4.758;2023-06-22T02:07:28;25.00;52.80
11491;DHT22;5802;52.832;4.758;2023-06-22T02:09:59;25.00;52.90
11491;DHT22;5802;52.832;4.758;2023-06-22T02:12:26;25.00;52.90
11491;DHT22;5802;52.832;4.758;2023-06-22T02:14:54;25.00;52.80
11491;DHT22;5802;52.832;4.758;2023-06-22T02:17:21;25.00;53.50
11491;DHT22;5802;52.832;4.758;2023-06-22T02:19:48;24.90;52.80
11491;DHT22;5802;52.832;4.758;2023-06-22T02:22:16;24.90;52.80
11491;DHT22;5802;52.832;4.758;2023-06-22T02:24:43;24.90;52.80
11491;DHT22;5802;52.832;4.758;2023-06-22T02:27:10;24.90;52.90
11491;DHT22;5802;52.832;4.758;2023-06-22T02:29:37;24.90;52.80
11491;DHT22;5802;52.832;4.758;2023-06-22T02:32:04;24.90;53.50
11491;DHT22;5802;52.832;4.758;2023-06-22T02:34:31;24.90;52.80
11491;DHT22;5802;52.832;4.758;2023-06-22T02:36:59;24.90;52.80
11491;DHT22;5802;52.832;4.758;2023-06-22T02:39:29;24.90;52.80
11491;DHT22;5802;52.832;4.758;2023-06-22T02:41:56;24.90;52.80
11491;DHT22;5802;52.832;4.758;2023-06-22T02:44:22;24.80;52.80
11491;DHT22;5802;52.832;4.758;2023-06-22T02:46:50;24.80;52.80
11491;DHT22;5802;52.832;4.758;2023-06-22T02:49:17;24.80;52.80
11491;DHT22;5802;52.832;4.758;2023-06-22T02:51:46;24.80;52.80
11491;DHT22;5802;52.832;4.758;2023-06-22T02:54:13;24.80;52.80
11491;DHT22;5802;52.832;4.758;2023-06-22T02:56:41;24.80;52.80
11491;DHT22;5802;52.832;4.758;2023-06-22T02:59:09;24.80;52.80
11491;DHT22;5802;52.832;4.758;2023-06-22T03:01:36;24.80;52.80
11491;DHT22;5802;52.832;4.758;2023-06-22T03:04:05;24.80;52.90
11491;DHT22;5802;52.832;4.758;2023-06-22T03:06:32;24.70;52.80
11491;DHT22;5802;52.832;4.758;2023-06-22T03:09:00;24.70;52.90
11491;DHT22;5802;52.832;4.758;2023-06-22T03:11:27;24.70;52.90
11491;DHT22;5802;52.832;4.758;2023-06-22T03:13:55;24.70;52.90
11491;DHT22;5802;52.832;4.758;2023-06-22T03:16:22;24.70;52.90
11491;DHT22;5802;52.832;4.758;2023-06-22T03:18:48;24.70;52.90
11491;DHT22;5802;52.832;4.758;2023-06-22T03:21:15;24.70;52.90
11491;DHT22;5802;52.832;4.758;2023-06-22T03:23:42;24.70;52.90
11491;DHT22;5802;52.832;4.758;2023-06-22T03:26:09;24.70;52.90
11491;DHT22;5802;52.832;4.758;2023-06-22T03:28:36;24.70;52.90
11491;DHT22;5802;52.832;4.758;2023-06-22T03:31:04;24.60;52.90
11491;DHT22;5802;52.832;4.758;2023-06-22T03:33:32;24.70;53.00
11491;DHT22;5802;52.832;4.758;2023-06-22T03:35:58;24.60;52.90
11491;DHT22;5802;52.832;4.758;2023-06-22T03:38:25;24.60;52.90
11491;DHT22;5802;52.832;4.758;2023-06-22T03:40:52;24.60;53.00
11491;DHT22;5802;52.832;4.758;2023-06-22T03:43:19;24.60;53.00
11491;DHT22;5802;52.832;4.758;2023-06-22T03:45:45;24.60;53.00
11491;DHT22;5802;52.832;4.758;2023-06-22T03:48:13;24.60;53.00
11491;DHT22;5802;52.832;4.758;2023-06-22T03:50:40;24.60;53.00
11491;DHT22;5802;52.832;4.758;2023-06-22T03:53:06;24.60;53.00
11491;DHT22;5802;52.832;4.758;2023-06-22T03:55:34;24.60;53.00
11491;DHT22;5802;52.832;4.758;2023-06-22T03:58:00;24.60;53.00
11491;DHT22;5802;52.832;4.758;2023-06-22T04:00:31;24.60;53.10
11491;DHT22;5802;52.832;4.758;2023-06-22T04:02:57;24.60;53.10
11491;DHT22;5802;52.832;4.758;2023-06-22T04:05:25;24.60;53.10
11491;DHT22;5802;52.832;4.758;2023-06-22T04:07:53;24.60;53.10
11491;DHT22;5802;52.832;4.758;2023-06-22T04:10:20;24.60;53.10
11491;DHT22;5802;52.832;4.758;2023-06-22T04:12:47;24.50;53.10
11491;DHT22;5802;52.832;4.758;2023-06-22T04:15:14;24.60;53.10
11491;DHT22;5802;52.832;4.758;2023-06-22T04:17:40;24.50;53.10
11491;DHT22;5802;52.832;4.758;2023-06-22T04:20:08;24.50;53.10
11491;DHT22;5802;52.832;4.758;2023-06-22T04:22:36;24.50;53.00
11491;DHT22;5802;52.832;4.758;2023-06-22T04:25:03;24.50;53.00
11491;DHT22;5802;52.832;4.758;2023-06-22T04:27:30;24.50;53.00
11491;DHT22;5802;52.832;4.758;2023-06-22T04:29:57;24.50;53.00
11491;DHT22;5802;52.832;4.758;2023-06-22T04:32:25;24.50;53.00
11491;DHT22;5802;52.832;4.758;2023-06-22T04:34:52;24.50;53.00
11491;DHT22;5802;52.832;4.758;2023-06-22T04:37:19;24.50;53.00
11491;DHT22;5802;52.832;4.758;2023-06-22T04:39:50;24.50;53.00
11491;DHT22;5802;52.832;4.758;2023-06-22T04:42:16;24.50;53.00
11491;DHT22;5802;52.832;4.758;2023-06-22T04:44:43;24.50;53.00
11491;DHT22;5802;52.832;4.758;2023-06-22T04:47:10;24.50;53.00
11491;DHT22;5802;52.832;4.758;2023-06-22T04:49:36;24.50;53.00
11491;DHT22;5802;52.832;4.758;2023-06-22T04:52:05;24.50;53.00
11491;DHT22;5802;52.832;4.758;2023-06-22T04:54:32;24.50;53.00
11491;DHT22;5802;52.832;4.758;2023-06-22T04:57:00;24.50;53.00
11491;DHT22;5802;52.832;4.758;2023-06-22T04:59:28;24.50;53.00
11491;DHT22;5802;52.832;4.758;2023-06-22T05:01:55;24.50;53.00
11491;DHT22;5802;52.832;4.758;2023-06-22T05:04:22;24.50;53.70
11491;DHT22;5802;52.832;4.758;2023-06-22T05:06:49;24.50;53.10
11491;DHT22;5802;52.832;4.758;2023-06-22T05:09:16;24.50;53.10
11491;DHT22;5802;52.832;4.758;2023-06-22T05:11:43;24.50;53.20
11491;DHT22;5802;52.832;4.758;2023-06-22T05:14:12;24.50;53.30
11491;DHT22;5802;52.832;4.758;2023-06-22T05:16:40;24.50;53.30
11491;DHT22;5802;52.832;4.758;2023-06-22T05:19:07;24.50;53.30
11491;DHT22;5802;52.832;4.758;2023-06-22T05:21:34;24.50;53.30
11491;DHT22;5802;52.832;4.758;2023-06-22T05:24:01;24.50;53.30
11491;DHT22;5802;52.832;4.758;2023-06-22T05:26:29;24.50;53.30
11491;DHT22;5802;52.832;4.758;2023-06-22T05:28:56;24.50;53.30
11491;DHT22;5802;52.832;4.758;2023-06-22T05:31:25;24.60;53.40
11491;DHT22;5802;52.832;4.758;2023-06-22T05:33:53;24.60;53.30
11491;DHT22;5802;52.832;4.758;2023-06-22T05:36:20;24.60;53.40
11491;DHT22;5802;52.832;4.758;2023-06-22T05:38:50;24.60;53.30
11491;DHT22;5802;52.832;4.758;2023-06-22T05:41:17;24.60;53.30
11491;DHT22;5802;52.832;4.758;2023-06-22T05:43:44;24.60;53.30
11491;DHT22;5802;52.832;4.758;2023-06-22T05:46:11;24.60;53.30
11491;DHT22;5802;52.832;4.758;2023-06-22T05:48:39;24.60;53.30
11491;DHT22;5802;52.832;4.758;2023-06-22T05:51:05;24.60;53.30
11491;DHT22;5802;52.832;4.758;2023-06-22T05:53:32;24.70;53.40
11491;DHT22;5802;52.832;4.758;2023-06-22T05:55:59;24.70;53.40
11491;DHT22;5802;52.832;4.758;2023-06-22T05:58:25;24.70;53.50
11491;DHT22;5802;52.832;4.758;2023-06-22T06:00:52;24.70;53.50
11491;DHT22;5802;52.832;4.758;2023-06-22T06:03:19;24.70;53.50
11491;DHT22;5802;52.832;4.758;2023-06-22T06:05:47;24.70;53.40
11491;DHT22;5802;52.832;4.758;2023-06-22T06:08:13;24.70;53.50
11491;DHT22;5802;52.832;4.758;2023-06-22T06:10:40;24.80;53.80
11491;DHT22;5802;52.832;4.758;2023-06-22T06:13:07;24.80;53.90
11491;DHT22;5802;52.832;4.758;2023-06-22T06:15:34;24.80;54.10
11491;DHT22;5802;52.832;4.758;2023-06-22T06:18:01;24.90;54.30
11491;DHT22;5802;52.832;4.758;2023-06-22T06:20:30;24.90;54.50
11491;DHT22;5802;52.832;4.758;2023-06-22T06:22:58;24.90;54.60
11491;DHT22;5802;52.832;4.758;2023-06-22T06:25:25;25.00;54.70
11491;DHT22;5802;52.832;4.758;2023-06-22T06:27:52;25.00;54.80
11491;DHT22;5802;52.832;4.758;2023-06-22T06:30:21;25.00;55.40
11491;DHT22;5802;52.832;4.758;2023-06-22T06:32:48;25.00;54.90
11491;DHT22;5802;52.832;4.758;2023-06-22T06:35:15;25.10;55.70
11491;DHT22;5802;52.832;4.758;2023-06-22T06:37:43;25.10;55.40
11491;DHT22;5802;52.832;4.758;2023-06-22T06:40:14;25.20;55.20
11491;DHT22;5802;52.832;4.758;2023-06-22T06:42:42;25.20;55.30
11491;DHT22;5802;52.832;4.758;2023-06-22T06:45:11;25.30;55.20
11491;DHT22;5802;52.832;4.758;2023-06-22T06:47:37;25.30;55.20
11491;DHT22;5802;52.832;4.758;2023-06-22T06:50:06;25.30;55.20
11491;DHT22;5802;52.832;4.758;2023-06-22T06:52:33;25.40;55.30
11491;DHT22;5802;52.832;4.758;2023-06-22T06:55:00;25.40;55.30
11491;DHT22;5802;52.832;4.758;2023-06-22T06:57:28;25.50;55.40
11491;DHT22;5802;52.832;4.758;2023-06-22T06:59:55;25.50;55.40
11491;DHT22;5802;52.832;4.758;2023-06-22T07:02:22;25.60;55.40
11491;DHT22;5802;52.832;4.758;2023-06-22T07:04:49;25.60;55.60
11491;DHT22;5802;52.832;4.758;2023-06-22T07:07:16;25.60;55.50
11491;DHT22;5802;52.832;4.758;2023-06-22T07:09:43;25.60;55.40
11491;DHT22;5802;52.832;4.758;2023-06-22T07:12:10;25.70;55.40
11491;DHT22;5802;52.832;4.758;2023-06-22T07:14:38;25.70;55.30
11491;DHT22;5802;52.832;4.758;2023-06-22T07:17:05;25.80;55.40
11491;DHT22;5802;52.832;4.758;2023-06-22T07:19:33;25.80;55.30
11491;DHT22;5802;52.832;4.758;2023-06-22T07:21:59;25.80;55.30
11491;DHT22;5802;52.832;4.758;2023-06-22T07:24:26;25.90;55.30
11491;DHT22;5802;52.832;4.758;2023-06-22T07:26:53;25.90;55.10
11491;DHT22;5802;52.832;4.758;2023-06-22T07:29:20;26.00;55.10
11491;DHT22;5802;52.832;4.758;2023-06-22T07:31:50;26.00;55.10
11491;DHT22;5802;52.832;4.758;2023-06-22T07:34:17;26.00;55.10
11491;DHT22;5802;52.832;4.758;2023-06-22T07:36:44;26.10;55.00
11491;DHT22;5802;52.832;4.758;2023-06-22T07:39:11;26.10;54.90
11491;DHT22;5802;52.832;4.758;2023-06-22T07:41:39;26.20;55.00
11491;DHT22;5802;52.832;4.758;2023-06-22T07:44:06;26.20;54.90
11491;DHT22;5802;52.832;4.758;2023-06-22T07:46:32;26.20;54.70
11491;DHT22;5802;52.832;4.758;2023-06-22T07:49:01;26.20;54.70
11491;DHT22;5802;52.832;4.758;2023-06-22T07:51:28;26.30;54.60
11491;DHT22;5802;52.832;4.758;2023-06-22T07:53:54;26.30;54.50
11491;DHT22;5802;52.832;4.758;2023-06-22T07:56:21;26.30;54.50
11491;DHT22;5802;52.832;4.758;2023-06-22T07:58:48;26.40;54.40
11491;DHT22;5802;52.832;4.758;2023-06-22T08:01:15;26.40;54.30
11491;DHT22;5802;52.832;4.758;2023-06-22T08:03:42;26.40;54.20
11491;DHT22;5802;52.832;4.758;2023-06-22T08:06:10;26.40;54.20
11491;DHT22;5802;52.832;4.758;2023-06-22T08:08:37;26.50;54.10
11491;DHT22;5802;52.832;4.758;2023-06-22T08:11:03;26.50;54.10
11491;DHT22;5802;52.832;4.758;2023-06-22T08:13:31;26.50;54.00
11491;DHT22;5802;52.832;4.758;2023-06-22T08:15:58;26.50;53.90
11491;DHT22;5802;52.832;4.758;2023-06-22T08:18:24;26.50;53.80
11491;DHT22;5802;52.832;4.758;2023-06-22T08:20:51;26.60;53.80
11491;DHT22;5802;52.832;4.758;2023-06-22T08:23:19;26.60;53.70
11491;DHT22;5802;52.832;4.758;2023-06-22T08:25:46;26.60;53.60
11491;DHT22;5802;52.832;4.758;2023-06-22T08:28:13;26.70;53.60
11491;DHT22;5802;52.832;4.758;2023-06-22T08:30:40;26.70;53.40
11491;DHT22;5802;52.832;4.758;2023-06-22T08:33:06;26.80;53.40
11491;DHT22;5802;52.832;4.758;2023-06-22T08:35:33;26.80;53.30
11491;DHT22;5802;52.832;4.758;2023-06-22T08:38:00;26.80;53.20
11491;DHT22;5802;52.832;4.758;2023-06-22T08:40:28;26.90;53.10
11491;DHT22;5802;52.832;4.758;2023-06-22T08:42:55;26.90;53.00
11491;DHT22;5802;52.832;4.758;2023-06-22T08:45:22;27.00;52.80
11491;DHT22;5802;52.832;4.758;2023-06-22T08:47:49;27.00;52.90
11491;DHT22;5802;52.832;4.758;2023-06-22T08:50:15;27.10;52.80
11491;DHT22;5802;52.832;4.758;2023-06-22T08:52:42;27.10;52.70
11491;DHT22;5802;52.832;4.758;2023-06-22T08:55:09;27.20;52.60
11491;DHT22;5802;52.832;4.758;2023-06-22T08:57:38;27.20;52.40
11491;DHT22;5802;52.832;4.758;2023-06-22T09:00:07;27.20;52.30
11491;DHT22;5802;52.832;4.758;2023-06-22T09:02:41;27.30;52.20
11491;DHT22;5802;52.832;4.758;2023-06-22T09:05:09;27.30;52.00
11491;DHT22;5802;52.832;4.758;2023-06-22T09:07:36;27.40;51.90
11491;DHT22;5802;52.832;4.758;2023-06-22T09:10:03;27.40;51.90
11491;DHT22;5802;52.832;4.758;2023-06-22T09:12:31;27.40;51.80
11491;DHT22;5802;52.832;4.758;2023-06-22T09:14:59;27.50;51.80
11491;DHT22;5802;52.832;4.758;2023-06-22T09:17:27;27.50;51.80
11491;DHT22;5802;52.832;4.758;2023-06-22T09:19:54;27.50;51.80
11491;DHT22;5802;52.832;4.758;2023-06-22T09:22:20;27.50;51.70
11491;DHT22;5802;52.832;4.758;2023-06-22T09:24:47;27.50;51.60
11491;DHT22;5802;52.832;4.758;2023-06-22T09:27:14;27.60;51.60
11491;DHT22;5802;52.832;4.758;2023-06-22T09:29:41;27.60;51.50
11491;DHT22;5802;52.832;4.758;2023-06-22T09:32:09;27.60;51.40
11491;DHT22;5802;52.832;4.758;2023-06-22T09:34:35;27.60;51.30
11491;DHT22;5802;52.832;4.758;2023-06-22T09:37:02;27.60;51.40
11491;DHT22;5802;52.832;4.758;2023-06-22T09:39:29;27.60;51.40
11491;DHT22;5802;52.832;4.758;2023-06-22T09:41:59;27.60;51.30
11491;DHT22;5802;52.832;4.758;2023-06-22T09:44:26;27.60;51.40
11491;DHT22;5802;52.832;4.758;2023-06-22T09:46:52;27.60;51.40
11491;DHT22;5802;52.832;4.758;2023-06-22T09:49:21;27.60;51.30
11491;DHT22;5802;52.832;4.758;2023-06-22T09:51:47;27.60;51.20
11491;DHT22;5802;52.832;4.758;2023-06-22T09:54:16;27.60;51.10
11491;DHT22;5802;52.832;4.758;2023-06-22T09:56:43;27.60;51.10
11491;DHT22;5802;52.832;4.758;2023-06-22T09:59:10;27.60;51.00
11491;DHT22;5802;52.832;4.758;2023-06-22T10:01:36;27.60;50.90
11491;DHT22;5802;52.832;4.758;2023-06-22T10:04:03;27.60;50.90
11491;DHT22;5802;52.832;4.758;2023-06-22T10:06:32;27.60;50.80
11491;DHT22;5802;52.832;4.758;2023-06-22T10:08:58;27.70;50.90
11491;DHT22;5802;52.832;4.758;2023-06-22T10:11:25;27.70;51.00
11491;DHT22;5802;52.832;4.758;2023-06-22T10:13:55;27.70;51.10
11491;DHT22;5802;52.832;4.758;2023-06-22T10:16:24;27.70;51.00
11491;DHT22;5802;52.832;4.758;2023-06-22T10:18:56;27.70;51.30
11491;DHT22;5802;52.832;4.758;2023-06-22T10:21:23;27.70;51.30
11491;DHT22;5802;52.832;4.758;2023-06-22T10:23:53;27.70;51.30
11491;DHT22;5802;52.832;4.758;2023-06-22T10:26:19;27.70;51.30
11491;DHT22;5802;52.832;4.758;2023-06-22T10:28:46;27.70;51.40
11491;DHT22;5802;52.832;4.758;2023-06-22T10:31:13;27.70;51.50
11491;DHT22;5802;52.832;4.758;2023-06-22T10:33:40;27.70;51.50
11491;DHT22;5802;52.832;4.758;2023-06-22T10:36:09;27.70;51.70
11491;DHT22;5802;52.832;4.758;2023-06-22T10:38:36;27.60;51.50
11491;DHT22;5802;52.832;4.758;2023-06-22T10:41:04;27.60;51.40
11491;DHT22;5802;52.832;4.758;2023-06-22T10:43:30;27.60;51.30
11491;DHT22;5802;52.832;4.758;2023-06-22T10:45:57;27.60;51.50
11491;DHT22;5802;52.832;4.758;2023-06-22T10:48:24;27.60;51.60
11491;DHT22;5802;52.832;4.758;2023-06-22T10:50:50;27.60;51.60
11491;DHT22;5802;52.832;4.758;2023-06-22T10:53:18;27.70;51.70
11491;DHT22;5802;52.832;4.758;2023-06-22T10:55:45;27.60;51.80
11491;DHT22;5802;52.832;4.758;2023-06-22T10:58:13;27.60;51.80
11491;DHT22;5802;52.832;4.758;2023-06-22T11:00:41;27.60;51.80
11491;DHT22;5802;52.832;4.758;2023-06-22T11:03:08;27.60;51.80
11491;DHT22;5802;52.832;4.758;2023-06-22T11:05:36;27.60;51.90
11491;DHT22;5802;52.832;4.758;2023-06-22T11:08:03;27.60;51.90
11491;DHT22;5802;52.832;4.758;2023-06-22T11:10:30;27.60;51.90
11491;DHT22;5802;52.832;4.758;2023-06-22T11:12:57;27.60;51.90
11491;DHT22;5802;52.832;4.758;2023-06-22T11:15:25;27.60;52.10
11491;DHT22;5802;52.832;4.758;2023-06-22T11:17:52;27.60;52.00
11491;DHT22;5802;52.832;4.758;2023-06-22T11:20:19;27.60;52.60
11491;DHT22;5802;52.832;4.758;2023-06-22T11:22:45;27.60;51.90
11491;DHT22;5802;52.832;4.758;2023-06-22T11:25:12;27.60;51.90
11491;DHT22;5802;52.832;4.758;2023-06-22T11:27:39;27.60;51.90
11491;DHT22;5802;52.832;4.758;2023-06-22T11:30:07;27.60;51.90
11491;DHT22;5802;52.832;4.758;2023-06-22T11:32:35;27.60;51.90
11491;DHT22;5802;52.832;4.758;2023-06-22T11:35:03;27.60;51.90
11491;DHT22;5802;52.832;4.758;2023-06-22T11:37:30;27.60;51.90
11491;DHT22;5802;52.832;4.758;2023-06-22T11:39:57;27.60;51.90
11491;DHT22;5802;52.832;4.758;2023-06-22T11:42:26;27.60;51.80
11491;DHT22;5802;52.832;4.758;2023-06-22T11:44:53;27.60;51.80
11491;DHT22;5802;52.832;4.758;2023-06-22T11:47:20;27.60;51.80
11491;DHT22;5802;52.832;4.758;2023-06-22T11:49:51;27.60;51.80
11491;DHT22;5802;52.832;4.758;2023-06-22T11:52:18;27.60;51.90
11491;DHT22;5802;52.832;4.758;2023-06-22T11:54:45;27.60;51.90
11491;DHT22;5802;52.832;4.758;2023-06-22T11:57:12;27.60;51.90
11491;DHT22;5802;52.832;4.758;2023-06-22T11:59:38;27.60;51.90
11491;DHT22;5802;52.832;4.758;2023-06-22T12:02:05;27.60;51.90
11491;DHT22;5802;52.832;4.758;2023-06-22T12:04:34;27.60;51.90
11491;DHT22;5802;52.832;4.758;2023-06-22T12:07:03;27.60;52.00
11491;DHT22;5802;52.832;4.758;2023-06-22T12:09:29;27.60;52.10
11491;DHT22;5802;52.832;4.758;2023-06-22T12:11:56;27.60;52.10
11491;DHT22;5802;52.832;4.758;2023-06-22T12:14:23;27.60;52.20
11491;DHT22;5802;52.832;4.758;2023-06-22T12:16:50;27.60;52.30
11491;DHT22;5802;52.832;4.758;2023-06-22T12:19:16;27.60;52.50
11491;DHT22;5802;52.832;4.758;2023-06-22T12:21:43;27.60;52.40
11491;DHT22;5802;52.832;4.758;2023-06-22T12:24:12;27.70;52.40
11491;DHT22;5802;52.832;4.758;2023-06-22T12:26:39;27.60;52.30
11491;DHT22;5802;52.832;4.758;2023-06-22T12:29:05;27.60;52.10
11491;DHT22;5802;52.832;4.758;2023-06-22T12:31:32;27.60;52.70
11491;DHT22;5802;52.832;4.758;2023-06-22T12:34:01;27.70;52.10
11491;DHT22;5802;52.832;4.758;2023-06-22T12:36:27;27.60;52.00
11491;DHT22;5802;52.832;4.758;2023-06-22T12:38:54;27.60;52.00
11491;DHT22;5802;52.832;4.758;2023-06-22T12:41:22;27.60;52.00
11491;DHT22;5802;52.832;4.758;2023-06-22T12:43:49;27.60;51.90
11491;DHT22;5802;52.832;4.758;2023-06-22T12:46:16;27.60;51.90
11491;DHT22;5802;52.832;4.758;2023-06-22T12:48:43;27.60;51.80
11491;DHT22;5802;52.832;4.758;2023-06-22T12:51:11;27.60;51.80
11491;DHT22;5802;52.832;4.758;2023-06-22T12:53:37;27.60;51.70
11491;DHT22;5802;52.832;4.758;2023-06-22T12:56:04;27.60;51.50
11491;DHT22;5802;52.832;4.758;2023-06-22T12:58:32;27.60;51.30
11491;DHT22;5802;52.832;4.758;2023-06-22T13:00:59;27.60;51.10
11491;DHT22;5802;52.832;4.758;2023-06-22T13:03:25;27.60;51.00
11491;DHT22;5802;52.832;4.758;2023-06-22T13:05:53;27.60;50.90
11491;DHT22;5802;52.832;4.758;2023-06-22T13:08:20;27.60;50.90
11491;DHT22;5802;52.832;4.758;2023-06-22T13:10:47;27.50;50.80
11491;DHT22;5802;52.832;4.758;2023-06-22T13:13:13;27.60;50.90
11491;DHT22;5802;52.832;4.758;2023-06-22T13:15:43;27.50;50.80
11491;DHT22;5802;52.832;4.758;2023-06-22T13:18:10;27.50;50.80
11491;DHT22;5802;52.832;4.758;2023-06-22T13:20:37;27.50;50.80
11491;DHT22;5802;52.832;4.758;2023-06-22T13:23:03;27.40;50.80
11491;DHT22;5802;52.832;4.758;2023-06-22T13:25:30;27.40;50.80
11491;DHT22;5802;52.832;4.758;2023-06-22T13:27:57;27.40;50.90
11491;DHT22;5802;52.832;4.758;2023-06-22T13:30:23;27.40;50.90
11491;DHT22;5802;52.832;4.758;2023-06-22T13:32:55;27.40;51.00
11491;DHT22;5802;52.832;4.758;2023-06-22T13:35:21;27.40;51.10
11491;DHT22;5802;52.832;4.758;2023-06-22T13:37:48;27.40;51.30
11491;DHT22;5802;52.832;4.758;2023-06-22T13:40:15;27.30;51.40
11491;DHT22;5802;52.832;4.758;2023-06-22T13:42:41;27.30;51.30
11491;DHT22;5802;52.832;4.758;2023-06-22T13:45:09;27.30;51.20
11491;DHT22;5802;52.832;4.758;2023-06-22T13:47:36;27.30;51.20
11491;DHT22;5802;52.832;4.758;2023-06-22T13:50:05;27.30;51.20
11491;DHT22;5802;52.832;4.758;2023-06-22T13:52:31;27.20;51.00
11491;DHT22;5802;52.832;4.758;2023-06-22T13:54:58;27.30;51.00
11491;DHT22;5802;52.832;4.758;2023-06-22T13:57:26;27.20;51.00
11491;DHT22;5802;52.832;4.758;2023-06-22T13:59:53;27.20;50.90
11491;DHT22;5802;52.832;4.758;2023-06-22T14:02:19;27.20;50.90
11491;DHT22;5802;52.832;4.758;2023-06-22T14:04:46;27.10;50.80
11491;DHT22;5802;52.832;4.758;2023-06-22T14:07:14;27.10;50.80
11491;DHT22;5802;52.832;4.758;2023-06-22T14:09:41;27.10;50.90
11491;DHT22;5802;52.832;4.758;2023-06-22T14:12:08;27.10;50.90
11491;DHT22;5802;52.832;4.758;2023-06-22T14:14:35;27.10;51.00
11491;DHT22;5802;52.832;4.758;2023-06-22T14:17:01;27.10;51.10
11491;DHT22;5802;52.832;4.758;2023-06-22T14:19:28;27.10;51.10
11491;DHT22;5802;52.832;4.758;2023-06-22T14:21:55;27.10;51.20
11491;DHT22;5802;52.832;4.758;2023-06-22T14:24:23;27.10;51.20
11491;DHT22;5802;52.832;4.758;2023-06-22T14:26:50;27.10;51.20
11491;DHT22;5802;52.832;4.758;2023-06-22T14:29:17;27.00;51.20
11491;DHT22;5802;52.832;4.758;2023-06-22T14:31:45;27.00;51.20
11491;DHT22;5802;52.832;4.758;2023-06-22T14:34:12;27.00;51.20
11491;DHT22;5802;52.832;4.758;2023-06-22T14:36:39;27.00;51.30
11491;DHT22;5802;52.832;4.758;2023-06-22T14:39:06;27.00;51.30
11491;DHT22;5802;52.832;4.758;2023-06-22T14:41:34;27.00;51.30
11491;DHT22;5802;52.832;4.758;2023-06-22T14:44:00;26.90;51.30
11491;DHT22;5802;52.832;4.758;2023-06-22T14:46:27;26.90;51.30
11491;DHT22;5802;52.832;4.758;2023-06-22T14:48:54;26.90;51.30
11491;DHT22;5802;52.832;4.758;2023-06-22T14:51:21;26.90;51.30
11491;DHT22;5802;52.832;4.758;2023-06-22T14:53:47;26.90;51.30
11491;DHT22;5802;52.832;4.758;2023-06-22T14:56:14;26.90;51.30
11491;DHT22;5802;52.832;4.758;2023-06-22T14:58:43;26.90;51.40
11491;DHT22;5802;52.832;4.758;2023-06-22T15:01:11;26.90;51.40
11491;DHT22;5802;52.832;4.758;2023-06-22T15:03:37;26.90;51.50
11491;DHT22;5802;52.832;4.758;2023-06-22T15:06:04;26.90;51.50
11491;DHT22;5802;52.832;4.758;2023-06-22T15:08:31;26.90;51.50
11491;DHT22;5802;52.832;4.758;2023-06-22T15:10:59;26.90;51.50
11491;DHT22;5802;52.832;4.758;2023-06-22T15:13:27;26.90;51.50
11491;DHT22;5802;52.832;4.758;2023-06-22T15:15:56;26.80;51.50
11491;DHT22;5802;52.832;4.758;2023-06-22T15:18:22;26.80;51.50
11491;DHT22;5802;52.832;4.758;2023-06-22T15:20:49;26.80;51.60
11491;DHT22;5802;52.832;4.758;2023-06-22T15:23:17;26.80;51.60
11491;DHT22;5802;52.832;4.758;2023-06-22T15:25:43;26.80;51.70
11491;DHT22;5802;52.832;4.758;2023-06-22T15:28:11;26.80;51.70
11491;DHT22;5802;52.832;4.758;2023-06-22T15:30:38;26.80;51.70
11491;DHT22;5802;52.832;4.758;2023-06-22T15:33:06;26.80;51.70
11491;DHT22;5802;52.832;4.758;2023-06-22T15:35:33;26.70;51.70
11491;DHT22;5802;52.832;4.758;2023-06-22T15:38:00;26.70;51.70
11491;DHT22;5802;52.832;4.758;2023-06-22T15:40:27;26.70;51.70
11491;DHT22;5802;52.832;4.758;2023-06-22T15:42:54;26.70;51.80
11491;DHT22;5802;52.832;4.758;2023-06-22T15:45:20;26.70;51.80